Date,TemperatureHighF,TemperatureAvgF,TemperatureLowF,DewpointHighF,DewpointAvgF,DewpointLowF,HumidityHigh,HumidityAvg,HumidityLow,PressureMaxIn,PressureMinIn,WindSpeedMaxMPH,WindSpeedAvgMPH,GustSpeedMaxMPH,PrecipitationSumIn
2013-2-1,39.9,33.8,22.7,26.6,11.9,-0.1,65,42,21,30.31,29.77,16,1,23,0.00
2013-2-2,43.3,31.7,17.7,29.8,10.7,4.5,70,43,24,30.32,29.94,9,0,17,0.00
2013-2-3,41.9,41.7,41.6,30.3,30.0,29.8,64,63,62,29.94,29.93,0,0,1,0.00
2013-2-4,48.2,38.6,24.8,25.9,21.0,16.6,82,51,30,30.06,29.90,3,0,11,0.00
2013-2-5,59.2,46.1,39.3,35.0,30.0,25.5,73,54,33,29.92,29.79,8,0,9,0.00
2013-2-6,61.2,46.7,34.4,34.5,28.3,21.8,86,54,23,30.20,29.88,7,0,9,0.00
2013-2-7,47.6,40.8,34.1,41.8,35.7,31.5,99,83,65,30.26,29.92,7,0,10,0.48
2013-2-8,53.6,43.9,38.0,44.2,38.7,27.8,99,83,51,29.94,29.71,6,0,14,0.48
2013-2-9,52.5,39.0,29.1,28.3,21.0,13.5,81,52,22,30.26,29.93,4,0,11,0.00
2013-2-10,53.3,40.1,28.7,39.3,21.4,15.9,85,49,26,30.41,30.13,1,0,5,0.02
2013-2-11,61.8,54.6,42.8,59.3,52.4,38.0,100,93,83,30.13,29.82,10,0,12,0.04
2013-2-12,59.6,51.7,42.2,53.4,34.0,24.2,93,54,26,29.98,29.83,5,0,11,0.00
2013-2-13,48.2,45.0,40.5,46.1,42.5,32.1,99,92,54,29.86,29.53,6,0,7,0.32
2013-2-14,51.9,40.5,30.3,35.7,32.2,29.3,98,75,45,29.99,29.72,4,0,7,0.00
2013-2-15,62.3,46.1,31.6,39.7,32.0,27.0,97,63,27,30.00,29.84,3,0,8,0.00
2013-2-16,45.2,35.7,29.4,35.6,31.9,27.9,97,87,61,29.88,29.74,4,0,6,0.24
2013-2-17,35.6,27.9,21.3,28.4,13.9,4.6,95,59,27,30.19,29.81,10,0,19,0.05
2013-2-18,51.9,34.1,17.8,24.7,16.0,11.0,84,52,23,30.33,30.17,3,0,13,0.02
2013-2-19,52.0,42.7,33.1,49.7,37.3,24.5,97,82,55,30.17,29.77,14,0,19,0.08
2013-2-20,51.4,39.8,29.8,36.8,18.0,9.0,97,46,18,30.06,29.86,11,0,12,0.00
2013-2-21,53.6,39.1,24.1,21.9,17.7,14.0,75,45,23,30.18,30.02,4,0,6,0.00
2013-2-22,39.8,35.2,30.7,35.0,29.9,19.1,98,83,44,30.26,30.06,4,0,6,0.25
2013-2-23,42.6,39.2,35.3,42.3,38.9,34.8,99,99,98,30.06,29.72,0,0,6,0.51
2013-2-24,62.3,48.8,40.2,46.0,36.7,25.1,100,68,25,29.95,29.69,6,0,10,0.01
2013-2-25,41.9,36.4,30.6,27.7,23.0,19.8,71,59,42,30.13,29.95,2,0,6,0.00
2013-2-26,56.3,43.6,33.7,56.3,40.6,24.1,100,90,65,30.06,29.48,13,2,13,0.76
2013-2-27,59.6,48.7,41.6,46.4,39.2,33.9,100,73,38,29.68,29.51,6,0,13,0.00
2013-2-28,47.6,40.8,33.5,38.3,30.8,24.8,96,70,42,29.76,29.59,4,0,8,0.00